RJNH(METAR)
10/20 06:00
METAR RJNH 192100Z 35006KT 9999 -RA FEW010 SCT030 BKN045 15/13 Q1013
RMK 1CU010 3SC030 7SC045 A2994 16/15 R018=
戻る
トップページへ戻る
IMOC Co,.Ltd.